Time;durP1;ratioP1;P1;durP2;ratioP2;P2;SDS_P1;SDS_P2;PMS_P1;PMS_P2;Temp;Humidity;BMP_temperature;BMP_pressure;BME280_temperature;BME280_humidity;BME280_pressure;Samples;Min_cycle;Max_cycle;Signal;HPM_P1;HPM_P2
2020/12/07 00:00:17;;;;;;;7.37;4.37;;;;;;;6.38;67.63;95886.33;1729066;82;21176;-84
2020/12/07 00:02:46;;;;;;;9.05;4.22;;;;;;;6.29;67.75;95886.61;1728777;83;21263;-84
2020/12/07 00:05:13;;;;;;;10.20;4.30;;;;;;;6.21;67.83;95885.87;1728858;83;21518;-84
2020/12/07 00:07:40;;;;;;;8.60;4.58;;;;;;;6.19;68.09;95877.42;1728862;83;21119;-84
2020/12/07 00:10:09;;;;;;;6.35;3.80;;;;;;;6.16;68.33;95872.70;1728949;82;21147;-84
2020/12/07 00:12:36;;;;;;;8.80;3.85;;;;;;;6.17;68.46;95871.64;1728876;83;21269;-84
2020/12/07 00:15:07;;;;;;;8.50;4.87;;;;;;;6.21;68.96;95883.23;1728832;83;21143;-84
2020/12/07 00:17:34;;;;;;;10.68;5.60;;;;;;;6.21;68.68;95886.66;1731952;83;21660;-85
2020/12/07 00:20:01;;;;;;;8.68;5.50;;;;;;;6.17;68.88;95894.80;1734411;81;21639;-85
2020/12/07 00:22:31;;;;;;;7.97;5.42;;;;;;;6.01;69.28;95889.32;1734299;83;21142;-84
2020/12/07 00:25:01;;;;;;;10.28;5.22;;;;;;;5.83;69.47;95889.33;1734688;83;21288;-85
2020/12/07 00:27:32;;;;;;;16.12;8.78;;;;;;;5.69;69.40;95877.77;1734606;83;21277;-85
2020/12/07 00:30:01;;;;;;;9.80;5.83;;;;;;;5.58;69.21;95877.52;1734474;81;21285;-85
2020/12/07 00:32:28;;;;;;;9.08;5.30;;;;;;;5.50;69.68;95875.42;1734259;83;21653;-84
2020/12/07 00:34:56;;;;;;;35.98;20.10;;;;;;;5.32;69.65;95859.11;1734451;83;21140;-84
2020/12/07 00:37:23;;;;;;;13.98;8.83;;;;;;;5.28;69.96;95876.98;1734469;83;21173;-84
2020/12/07 00:39:51;;;;;;;13.18;7.15;;;;;;;5.25;69.84;95880.94;1734312;81;21135;-85
2020/12/07 00:42:18;;;;;;;10.53;6.20;;;;;;;5.17;69.80;95879.34;1734280;83;21111;-84
2020/12/07 00:44:46;;;;;;;8.95;5.92;;;;;;;5.10;70.14;95880.92;1734611;82;21095;-85
2020/12/07 00:47:12;;;;;;;10.75;6.72;;;;;;;5.06;70.71;95874.59;1734385;82;21135;-84
2020/12/07 00:49:40;;;;;;;10.70;6.37;;;;;;;5.05;70.88;95880.37;1734310;81;21912;-84
2020/12/07 00:52:08;;;;;;;10.50;6.62;;;;;;;5.00;70.66;95873.80;1734363;83;21643;-84
2020/12/07 00:54:36;;;;;;;10.53;6.40;;;;;;;4.92;70.51;95857.23;1734293;83;21150;-84
2020/12/07 00:57:04;;;;;;;11.40;6.35;;;;;;;4.82;70.67;95850.67;1734243;83;21181;-84
2020/12/07 00:59:32;;;;;;;9.30;5.37;;;;;;;4.83;70.90;95847.52;1734317;81;21107;-84
2020/12/07 01:01:59;;;;;;;7.87;4.53;;;;;;;4.90;71.45;95834.91;1734268;82;21138;-84
2020/12/07 01:04:27;;;;;;;6.42;4.17;;;;;;;5.01;71.69;95824.69;1734320;83;21260;-84
2020/12/07 01:06:54;;;;;;;11.18;4.72;;;;;;;5.14;72.24;95826.01;1734582;83;21146;-84
2020/12/07 01:09:22;;;;;;;8.28;4.97;;;;;;;5.30;72.46;95831.52;1734284;81;21265;-84
2020/12/07 01:12:00;;;;;;;6.97;4.45;;;;;;;5.35;72.07;95827.59;1734413;82;21660;-84
2020/12/07 01:14:27;;;;;;;6.20;4.12;;;;;;;5.42;72.28;95815.48;1734258;83;21150;-84
2020/12/07 01:16:55;;;;;;;6.58;4.03;;;;;;;5.58;72.48;95825.72;1734441;83;21150;-83
2020/12/07 01:19:22;;;;;;;6.92;4.35;;;;;;;5.65;72.22;95817.04;1734368;81;21475;-84
2020/12/07 01:21:50;;;;;;;6.95;4.15;;;;;;;5.69;72.16;95808.09;1734314;83;21237;-84
2020/12/07 01:24:17;;;;;;;8.10;4.92;;;;;;;5.72;72.10;95810.70;1734322;83;21138;-84
2020/12/07 01:26:44;;;;;;;8.68;4.85;;;;;;;5.72;72.19;95798.34;1734423;83;21487;-84
2020/12/07 01:29:11;;;;;;;6.92;4.35;;;;;;;5.73;72.22;95802.55;1734212;83;21145;-84
2020/12/07 01:31:38;;;;;;;6.87;4.60;;;;;;;5.84;72.39;95798.84;1734269;81;21150;-84
2020/12/07 01:34:06;;;;;;;6.42;4.60;;;;;;;5.89;72.30;95796.19;1734229;82;21171;-84
2020/12/07 01:36:33;;;;;;;8.65;5.28;;;;;;;5.88;72.21;95797.25;1734354;82;21467;-84
2020/12/07 01:39:00;;;;;;;7.37;4.95;;;;;;;5.86;72.02;95787.52;1734317;83;21646;-84
2020/12/07 01:41:28;;;;;;;7.15;3.60;;;;;;;5.86;72.11;95793.31;1734210;81;21253;-84
2020/12/07 01:43:55;;;;;;;7.50;4.08;;;;;;;5.85;72.13;95783.32;1734208;83;21146;-84
2020/12/07 01:46:24;;;;;;;6.78;4.37;;;;;;;5.87;72.15;95778.58;1734268;83;21158;-84
2020/12/07 01:48:56;;;;;;;9.28;5.12;;;;;;;5.93;72.37;95784.13;1734236;82;21138;-84
2020/12/07 01:51:24;;;;;;;8.18;4.75;;;;;;;6.00;72.42;95785.14;1734360;81;21506;-84
2020/12/07 01:53:52;;;;;;;6.92;4.55;;;;;;;6.06;72.36;95783.30;1734281;83;21132;-84
2020/12/07 01:56:29;;;;;;;7.58;4.70;;;;;;;6.07;72.10;95797.50;1734226;83;21134;-84
2020/12/07 01:59:00;;;;;;;8.98;5.60;;;;;;;6.04;72.21;95784.06;1734278;83;21256;-84
2020/12/07 02:01:28;;;;;;;8.73;5.47;;;;;;;6.09;72.15;95785.37;1734235;81;21111;-83
2020/12/07 02:03:55;;;;;;;6.60;4.33;;;;;;;6.18;72.07;95790.33;1734302;83;21273;-84
2020/12/07 02:06:23;;;;;;;7.33;4.20;;;;;;;6.16;71.93;95796.39;1734225;83;21142;-84
2020/12/07 02:08:51;;;;;;;6.45;4.30;;;;;;;6.17;71.93;95790.85;1734303;82;21527;-84
2020/12/07 02:11:19;;;;;;;6.20;3.80;;;;;;;6.19;72.22;95809.00;1734322;81;21142;-84
2020/12/07 02:13:47;;;;;;;6.53;4.37;;;;;;;6.22;71.89;95797.95;1733661;83;21130;-84
2020/12/07 02:16:14;;;;;;;7.00;4.53;;;;;;;6.24;71.93;95798.47;1734236;82;21119;-84
2020/12/07 02:18:41;;;;;;;6.83;4.40;;;;;;;6.31;71.92;95812.11;1729843;83;21162;-83
2020/12/07 02:21:08;;;;;;;5.55;3.35;;;;;;;6.35;71.79;95799.22;1728786;82;21272;-84
2020/12/07 02:23:35;;;;;;;5.55;3.90;;;;;;;6.42;71.76;95798.38;1728739;83;21100;-84
2020/12/07 02:26:02;;;;;;;5.60;3.92;;;;;;;6.54;71.85;95786.47;1728745;83;21539;-84
2020/12/07 02:28:29;;;;;;;4.72;3.25;;;;;;;6.73;71.52;95783.97;1728930;83;21515;-84
2020/12/07 02:30:56;;;;;;;6.10;4.20;;;;;;;6.69;71.21;95794.02;1728764;82;21507;-84
2020/12/07 02:33:23;;;;;;;6.75;4.35;;;;;;;6.75;71.13;95806.09;1728826;83;21107;-83
2020/12/07 02:35:50;;;;;;;7.30;4.10;;;;;;;6.70;70.87;95808.23;1728804;83;21156;-83
2020/12/07 02:38:17;;;;;;;5.25;3.35;;;;;;;6.63;70.84;95798.55;1728753;83;21151;-84
2020/12/07 02:40:44;;;;;;;7.03;3.77;;;;;;;6.55;70.71;95793.84;1728864;82;21292;-84
2020/12/07 02:43:10;;;;;;;7.10;4.28;;;;;;;6.51;70.84;95795.45;1728729;83;21292;-84
2020/12/07 02:45:37;;;;;;;6.37;4.03;;;;;;;6.47;70.79;95795.71;1728832;83;21300;-83
2020/12/07 02:48:04;;;;;;;8.45;4.90;;;;;;;6.43;70.78;95788.11;1728815;83;21653;-84
2020/12/07 02:50:31;;;;;;;5.75;3.62;;;;;;;6.38;70.79;95798.67;1728832;82;21177;-84
2020/12/07 02:52:58;;;;;;;7.22;3.77;;;;;;;6.32;70.96;95797.89;1728938;83;21134;-84
2020/12/07 02:55:25;;;;;;;5.20;3.27;;;;;;;6.34;71.26;95787.91;1728698;83;21163;-84
2020/12/07 02:57:52;;;;;;;5.85;3.08;;;;;;;6.53;71.23;95803.33;1728762;83;21257;-84
2020/12/07 03:00:19;;;;;;;3.17;2.17;;;;;;;7.28;70.11;95773.28;1748176;82;21143;-84
2020/12/07 03:02:46;;;;;;;5.78;3.25;;;;;;;8.04;67.75;95783.08;1759097;81;21107;-84
2020/12/07 03:05:13;;;;;;;3.60;1.82;;;;;;;8.46;66.47;95768.33;1758733;81;21139;-84
2020/12/07 03:07:40;;;;;;;4.83;2.85;;;;;;;8.60;64.67;95761.27;1758783;82;21491;-84
2020/12/07 03:10:07;;;;;;;2.27;1.72;;;;;;;9.03;63.57;95755.87;1758776;82;21519;-84
2020/12/07 03:12:34;;;;;;;3.35;2.20;;;;;;;9.22;62.06;95775.91;1743797;81;21163;-84
2020/12/07 03:15:01;;;;;;;3.75;2.62;;;;;;;9.41;61.14;95765.27;1728656;83;21566;-83
2020/12/07 03:17:28;;;;;;;3.55;2.47;;;;;;;9.61;60.41;95752.77;1729542;83;21162;-84
2020/12/07 03:19:55;;;;;;;3.67;1.92;;;;;;;9.73;59.70;95763.13;1734150;81;21162;-84
2020/12/07 03:22:21;;;;;;;4.25;2.50;;;;;;;9.87;59.14;95754.42;1734418;82;21513;-84
2020/12/07 03:24:48;;;;;;;3.58;1.85;;;;;;;9.87;59.01;95745.94;1734206;83;21142;-84
2020/12/07 03:27:15;;;;;;;3.17;2.20;;;;;;;9.88;58.65;95750.69;1734244;83;21119;-84
2020/12/07 03:29:42;;;;;;;2.92;1.82;;;;;;;9.87;58.82;95742.50;1734149;81;21191;-84
2020/12/07 03:32:09;;;;;;;3.90;2.12;;;;;;;9.76;58.40;95720.19;1734305;83;21110;-84
2020/12/07 03:34:36;;;;;;;3.87;2.62;;;;;;;9.85;58.15;95725.56;1734135;83;21150;-84
2020/12/07 03:37:03;;;;;;;4.87;2.98;;;;;;;9.93;58.17;95727.53;1734176;83;21162;-84
2020/12/07 03:39:30;;;;;;;4.70;2.22;;;;;;;9.86;58.09;95727.70;1734187;81;21111;-84
2020/12/07 03:41:57;;;;;;;4.42;2.52;;;;;;;9.96;57.77;95732.23;1734163;82;21158;-84
2020/12/07 03:44:24;;;;;;;2.20;1.70;;;;;;;10.17;57.33;95727.87;1734355;82;21420;-84
2020/12/07 03:46:50;;;;;;;4.37;2.45;;;;;;;10.17;56.97;95731.84;1734265;82;21134;-84
2020/12/07 03:49:17;;;;;;;3.87;2.98;;;;;;;10.14;57.29;95739.06;1734236;83;21474;-84
2020/12/07 03:51:44;;;;;;;4.62;3.15;;;;;;;9.79;58.18;95726.21;1734266;81;21300;-84
2020/12/07 03:54:11;;;;;;;4.53;2.70;;;;;;;9.65;58.91;95721.99;1734106;83;21171;-84
2020/12/07 03:56:38;;;;;;;5.40;3.42;;;;;;;9.61;59.17;95728.96;1734169;83;21139;-84
2020/12/07 03:59:05;;;;;;;3.50;2.62;;;;;;;9.40;59.44;95734.60;1734142;83;21150;-84
2020/12/07 04:01:32;;;;;;;4.92;2.80;;;;;;;9.21;59.76;95729.38;1734259;81;21514;-84
2020/12/07 04:04:02;;;;;;;6.37;4.20;;;;;;;9.46;59.63;95730.02;1734220;82;21154;-84
2020/12/07 04:06:29;;;;;;;6.58;3.67;;;;;;;9.34;59.75;95723.09;1733946;83;21123;-84
2020/12/07 04:08:56;;;;;;;4.25;3.33;;;;;;;9.03;60.10;95728.12;1734106;82;21146;-84
2020/12/07 04:11:23;;;;;;;7.37;2.52;;;;;;;8.92;60.78;95724.31;1734148;81;21146;-84
2020/12/07 04:13:50;;;;;;;7.72;3.65;;;;;;;9.18;60.28;95723.89;1704990;84;21151;-84
2020/12/07 04:16:17;;;;;;;6.62;4.15;;;;;;;9.31;60.33;95715.20;1704858;84;21523;-84
2020/12/07 04:18:44;;;;;;;7.30;4.00;;;;;;;9.18;60.44;95711.45;1702065;84;21178;-84
2020/12/07 04:21:11;;;;;;;7.08;4.25;;;;;;;8.88;60.56;95718.03;1699801;83;21135;-84
2020/12/07 04:23:38;;;;;;;5.45;3.85;;;;;;;8.57;61.04;95721.66;1699832;84;21146;-84
2020/12/07 04:26:05;;;;;;;6.00;3.42;;;;;;;8.39;61.46;95722.98;1699744;84;21557;-84
2020/12/07 04:28:32;;;;;;;9.00;4.72;;;;;;;8.18;62.54;95728.52;1699862;84;21305;-84
2020/12/07 04:30:59;;;;;;;7.72;4.67;;;;;;;8.08;62.50;95724.69;1699798;83;21526;-84
2020/12/07 04:33:26;;;;;;;7.58;4.28;;;;;;;7.95;62.74;95731.98;1700124;84;21146;-84
2020/12/07 04:35:52;;;;;;;8.98;4.70;;;;;;;7.82;62.98;95736.61;1699753;84;21179;-84
2020/12/07 04:38:19;;;;;;;7.15;4.50;;;;;;;7.68;63.37;95727.27;1699802;84;21293;-84
2020/12/07 04:40:47;;;;;;;7.28;4.00;;;;;;;7.58;63.66;95726.05;1699935;83;21161;-84
2020/12/07 04:43:17;;;;;;;5.37;3.67;;;;;;;7.51;63.94;95717.17;1722534;83;21532;-84
2020/12/07 04:45:44;;;;;;;6.62;3.67;;;;;;;7.43;64.16;95723.05;1728791;83;21134;-84
2020/12/07 04:48:12;;;;;;;8.98;4.78;;;;;;;7.40;64.60;95727.03;1728877;83;21134;-84
2020/12/07 04:50:39;;;;;;;9.60;6.50;;;;;;;7.41;64.55;95718.59;1728812;82;21146;-84
2020/12/07 04:53:07;;;;;;;7.70;4.90;;;;;;;7.40;64.59;95709.11;1729125;83;21132;-84
2020/12/07 04:55:34;;;;;;;7.10;4.78;;;;;;;7.41;65.08;95722.00;1728741;83;21156;-84
2020/12/07 04:58:02;;;;;;;7.50;4.33;;;;;;;7.47;65.00;95721.97;1728878;83;21150;-84
2020/12/07 05:00:31;;;;;;;5.85;4.17;;;;;;;7.50;65.10;95715.59;1728804;82;21498;-84
2020/12/07 05:02:59;;;;;;;5.72;4.17;;;;;;;7.53;65.24;95729.54;1728964;83;21139;-84
2020/12/07 05:05:26;;;;;;;5.65;3.65;;;;;;;7.56;65.15;95732.93;1728765;83;21177;-84
2020/12/07 05:07:53;;;;;;;8.45;4.40;;;;;;;7.56;65.14;95731.61;1728834;83;21514;-84
2020/12/07 05:10:28;;;;;;;7.87;4.10;;;;;;;7.50;65.27;95740.66;1728869;82;21539;-84
2020/12/07 05:13:01;;;;;;;6.35;4.12;;;;;;;7.45;65.18;95736.73;1728421;83;21139;-84
2020/12/07 05:15:24;;;;;;;6.30;3.60;;;;;;;7.36;65.28;95727.34;1727783;83;21166;-84
2020/12/07 05:17:55;;;;;;;7.78;4.20;;;;;;;7.29;65.41;95724.77;1729480;83;21155;-84
2020/12/07 05:20:25;;;;;;;6.97;4.15;;;;;;;7.26;65.66;95716.10;1734229;81;21519;-84
2020/12/07 05:22:52;;;;;;;7.10;4.50;;;;;;;7.28;66.14;95742.97;1734416;82;21142;-84
2020/12/07 05:25:20;;;;;;;6.45;4.25;;;;;;;7.34;66.13;95733.97;1734230;82;21134;-84
2020/12/07 05:27:49;;;;;;;6.47;4.03;;;;;;;7.37;65.84;95723.64;1734284;82;21142;-84
2020/12/07 05:30:24;;;;;;;5.15;3.22;;;;;;;7.34;65.84;95716.30;1734447;81;21142;-84
2020/12/07 05:32:51;;;;;;;5.50;3.70;;;;;;;7.43;66.32;95723.05;1734409;82;21268;-84
2020/12/07 05:35:19;;;;;;;5.25;3.35;;;;;;;7.80;65.95;95715.01;1734214;83;21304;-84
2020/12/07 05:37:46;;;;;;;3.42;2.22;;;;;;;7.88;65.60;95709.09;1734270;83;21134;-84
2020/12/07 05:40:15;;;;;;;7.08;3.83;;;;;;;8.10;65.03;95715.95;1734230;81;21143;-84
2020/12/07 05:42:43;;;;;;;4.00;2.77;;;;;;;8.47;63.91;95716.54;1734288;82;21647;-84
2020/12/07 05:45:12;;;;;;;7.08;4.30;;;;;;;8.52;63.12;95724.38;1734180;83;21146;-84
2020/12/07 05:47:40;;;;;;;4.67;2.27;;;;;;;8.65;62.98;95718.91;1734375;82;21155;-84
2020/12/07 05:50:10;;;;;;;4.80;2.37;;;;;;;8.67;62.44;95720.73;1734219;81;21649;-83
2020/12/07 05:52:48;;;;;;;6.78;3.83;;;;;;;9.07;61.07;95721.95;1734446;82;21123;-83
2020/12/07 05:55:18;;;;;;;7.08;3.58;;;;;;;8.98;60.98;95708.36;1734164;83;21158;-84
2020/12/07 05:58:08;;;;;;;5.60;4.08;;;;;;;8.78;61.44;95719.51;1734800;83;21289;-84
2020/12/07 06:00:38;;;;;;;6.37;3.45;;;;;;;8.51;61.96;95734.70;1734354;81;21158;-84
2020/12/07 06:03:07;;;;;;;5.65;3.25;;;;;;;8.82;61.49;95736.35;1734568;82;21518;-84
2020/12/07 06:05:34;;;;;;;5.87;3.35;;;;;;;8.80;61.37;95717.36;1734130;83;21111;-84
2020/12/07 06:08:16;;;;;;;6.47;3.75;;;;;;;8.89;60.93;95741.28;1734376;83;21265;-84
2020/12/07 06:10:53;;;;;;;6.00;4.10;;;;;;;8.86;61.19;95732.05;1733731;81;21155;-84
2020/12/07 06:13:24;;;;;;;8.75;4.20;;;;;;;8.67;61.54;95727.34;1734160;83;21126;-84
2020/12/07 06:15:54;;;;;;;5.85;3.47;;;;;;;8.49;61.85;95714.39;1734166;83;21513;-84
2020/12/07 06:18:35;;;;;;;7.30;4.55;;;;;;;8.35;62.19;95725.42;1734570;83;21123;-84
2020/12/07 06:21:08;;;;;;;8.33;4.83;;;;;;;8.24;62.49;95744.54;1734393;81;21543;-84
2020/12/07 06:23:44;;;;;;;7.12;4.37;;;;;;;8.07;62.90;95752.16;1734164;83;21122;-84
2020/12/07 06:26:19;;;;;;;6.95;4.00;;;;;;;7.95;63.08;95742.53;1734313;82;21322;-84
2020/12/07 06:28:50;;;;;;;7.28;4.05;;;;;;;7.92;63.36;95735.19;1734216;82;21152;-84
2020/12/07 06:31:21;;;;;;;5.05;3.55;;;;;;;7.87;63.68;95741.82;1734464;81;21143;-84
2020/12/07 06:33:52;;;;;;;6.53;3.77;;;;;;;7.86;63.87;95750.81;1734153;82;21131;-84
2020/12/07 06:36:35;;;;;;;6.15;3.80;;;;;;;7.87;63.81;95755.80;1734178;82;21111;-84
2020/12/07 06:39:09;;;;;;;6.17;3.67;;;;;;;7.91;63.65;95741.00;1734348;83;21597;-84
2020/12/07 06:41:46;;;;;;;12.33;6.87;;;;;;;7.86;63.68;95742.89;1734040;81;21521;-83
2020/12/07 06:44:19;;;;;;;5.85;4.25;;;;;;;7.83;63.75;95735.55;1734206;83;21138;-84
2020/12/07 06:47:04;;;;;;;5.97;3.92;;;;;;;7.82;63.88;95747.95;1734099;83;21122;-84
2020/12/07 06:49:40;;;;;;;5.75;3.80;;;;;;;7.81;63.86;95742.42;1734212;81;21471;-84
2020/12/07 06:52:11;;;;;;;5.75;3.30;;;;;;;7.79;63.90;95745.88;1734206;83;21130;-84
2020/12/07 06:57:48;;;;;;;6.00;3.87;;;;;;;7.80;63.76;95741.39;1734094;83;21115;-84
2020/12/07 07:00:23;;;;;;;8.10;4.42;;;;;;;7.86;63.64;95744.21;1734313;81;21292;-84
2020/12/07 07:02:57;;;;;;;10.85;6.00;;;;;;;8.06;63.61;95749.27;1734084;83;21123;-84
2020/12/07 07:05:28;;;;;;;8.58;5.28;;;;;;;8.42;63.30;95744.86;1734176;82;21629;-83
2020/12/07 07:07:56;;;;;;;6.83;4.17;;;;;;;8.81;62.39;95755.92;1734130;83;21139;-84
2020/12/07 07:10:25;;;;;;;6.75;4.10;;;;;;;9.00;61.39;95760.39;1734242;81;21155;-84
2020/12/07 07:12:52;;;;;;;7.12;4.08;;;;;;;9.28;61.53;95754.66;1734144;83;21130;-84
2020/12/07 07:15:19;;;;;;;4.25;3.17;;;;;;;9.51;60.99;95744.47;1734080;82;21163;-84
2020/12/07 07:17:48;;;;;;;6.28;3.90;;;;;;;9.81;60.11;95757.68;1734195;82;21280;-84
2020/12/07 07:20:17;;;;;;;6.65;4.12;;;;;;;10.01;59.94;95758.63;1729385;82;21534;-84
2020/12/07 07:22:46;;;;;;;6.47;3.80;;;;;;;10.25;59.54;95770.34;1728898;83;21146;-84
2020/12/07 07:25:26;;;;;;;6.40;4.03;;;;;;;10.54;59.49;95756.75;1729137;83;21180;-84
2020/12/07 07:28:05;;;;;;;8.08;4.55;;;;;;;10.81;59.08;95750.59;1728294;83;21708;-84
2020/12/07 07:30:34;;;;;;;6.47;4.20;;;;;;;11.03;58.10;95756.46;1702859;83;21176;-84
2020/12/07 07:33:01;;;;;;;6.53;3.95;;;;;;;11.16;58.18;95746.88;1728597;83;21273;-84
2020/12/07 07:35:32;;;;;;;6.58;4.45;;;;;;;11.33;57.99;95747.52;1728611;83;21281;-84
2020/12/07 07:37:59;;;;;;;8.38;4.47;;;;;;;11.49;57.46;95746.05;1728932;83;21122;-84
2020/12/07 07:40:29;;;;;;;7.70;4.58;;;;;;;11.61;57.20;95748.92;1728634;82;21135;-84
2020/12/07 07:43:01;;;;;;;6.00;3.70;;;;;;;11.62;56.84;95755.79;1728680;83;21123;-84
2020/12/07 07:45:36;;;;;;;5.58;3.60;;;;;;;11.78;57.02;95762.81;1728651;83;21277;-84
2020/12/07 07:48:12;;;;;;;7.50;4.65;;;;;;;11.93;56.18;95760.33;1728726;83;21495;-84
2020/12/07 07:50:55;;;;;;;6.72;4.40;;;;;;;12.03;56.35;95778.10;1727891;82;21546;-84
2020/12/07 07:59:59;;;;;;;6.50;3.70;;;;;;;12.39;54.98;95772.59;1728926;83;21514;-84
2020/12/07 08:03:18;;;;;;;6.30;3.80;;;;;;;12.23;54.44;95763.46;1724518;83;21514;-84
2020/12/07 08:16:23;;;;;;;6.40;3.90;;;;;;;11.99;54.24;95789.66;1728560;83;21181;-84
2020/12/07 08:18:55;;;;;;;5.97;3.70;;;;;;;11.77;54.13;95798.42;1729087;83;21162;-84
2020/12/07 08:21:32;;;;;;;9.88;4.33;;;;;;;11.42;54.13;95808.86;1728669;82;21278;-84
2020/12/07 08:24:06;;;;;;;6.03;3.50;;;;;;;11.05;54.26;95808.66;1728785;83;21122;-84
2020/12/07 08:26:43;;;;;;;7.00;3.90;;;;;;;10.80;54.54;95805.24;1728888;83;21131;-84
2020/12/07 08:29:12;;;;;;;6.58;3.75;;;;;;;10.58;54.85;95813.95;1728792;83;21125;-84
2020/12/07 08:31:41;;;;;;;6.62;3.50;;;;;;;10.42;55.08;95816.13;1728780;82;21146;-84
2020/12/07 08:34:12;;;;;;;6.12;3.87;;;;;;;10.30;55.42;95814.52;1728816;83;21147;-84
2020/12/07 08:36:43;;;;;;;5.33;3.62;;;;;;;10.30;55.61;95826.44;1728866;83;21289;-84
2020/12/07 08:39:10;;;;;;;6.87;3.37;;;;;;;10.31;55.47;95827.46;1728748;83;21119;-84
2020/12/07 08:41:38;;;;;;;7.47;4.33;;;;;;;10.35;55.88;95823.67;1728735;82;21151;-84
2020/12/07 08:44:11;;;;;;;7.83;3.87;;;;;;;10.40;55.85;95821.70;1728719;83;21136;-84
2020/12/07 08:46:39;;;;;;;5.47;3.55;;;;;;;10.39;56.04;95821.45;1729007;83;21143;-84
2020/12/07 08:49:08;;;;;;;8.30;3.70;;;;;;;10.44;55.91;95823.78;1728934;83;21134;-84
2020/12/07 08:51:37;;;;;;;7.53;3.90;;;;;;;10.47;56.30;95814.69;1728764;82;21193;-84
2020/12/07 08:54:07;;;;;;;6.78;3.72;;;;;;;10.52;56.21;95813.25;1728827;83;21142;-84
2020/12/07 08:56:34;;;;;;;7.00;4.03;;;;;;;10.56;56.03;95824.06;1728905;83;21511;-84
2020/12/07 08:59:01;;;;;;;7.80;3.85;;;;;;;10.23;54.75;95824.16;1728827;83;21177;-84
2020/12/07 09:01:28;;;;;;;5.50;3.27;;;;;;;10.09;55.86;95818.05;1728827;82;21142;-84
2020/12/07 09:03:55;;;;;;;7.65;3.65;;;;;;;10.10;55.73;95829.67;1728806;83;21220;-84
2020/12/07 09:06:22;;;;;;;7.53;4.37;;;;;;;10.07;55.77;95834.78;1728791;83;21526;-84
2020/12/07 09:08:50;;;;;;;5.22;3.33;;;;;;;9.96;55.75;95810.34;1728725;83;21139;-84
2020/12/07 09:11:19;;;;;;;7.78;3.62;;;;;;;9.89;56.19;95815.25;1728740;82;21249;-84
2020/12/07 09:13:48;;;;;;;5.58;3.10;;;;;;;9.95;56.46;95812.74;1728539;83;21132;-83
2020/12/07 09:16:16;;;;;;;5.67;3.33;;;;;;;10.06;56.43;95805.41;1728915;83;21182;-84
2020/12/07 09:18:44;;;;;;;5.75;3.67;;;;;;;10.08;56.38;95819.91;1728854;83;21112;-84
2020/12/07 09:21:11;;;;;;;3.70;2.75;;;;;;;9.94;55.65;95820.98;1728788;82;21277;-84
2020/12/07 09:23:39;;;;;;;6.70;2.98;;;;;;;9.92;56.07;95815.98;1728898;83;21134;-84
2020/12/07 09:26:08;;;;;;;3.60;2.12;;;;;;;10.04;55.63;95813.64;1728721;83;21285;-84
2020/12/07 09:28:36;;;;;;;3.98;2.75;;;;;;;10.21;55.50;95814.91;1728764;83;21944;-84
2020/12/07 09:31:06;;;;;;;4.62;2.72;;;;;;;10.35;55.65;95819.70;1728820;82;21296;-84
2020/12/07 09:33:35;;;;;;;4.37;2.52;;;;;;;10.44;55.25;95815.28;1728987;83;21308;-84
2020/12/07 09:36:05;;;;;;;5.72;3.00;;;;;;;10.54;55.50;95813.73;1728831;83;21143;-84
2020/12/07 09:38:34;;;;;;;5.40;2.77;;;;;;;10.62;55.39;95805.09;1729035;83;21508;-84
2020/12/07 09:41:01;;;;;;;4.72;2.70;;;;;;;10.65;54.88;95812.45;1728921;82;21151;-84
2020/12/07 09:43:29;;;;;;;3.67;2.50;;;;;;;10.67;54.72;95807.63;1728616;83;21280;-84
2020/12/07 09:45:56;;;;;;;4.90;2.98;;;;;;;10.70;55.12;95805.73;1728825;83;21135;-84
2020/12/07 09:48:25;;;;;;;5.65;2.83;;;;;;;10.73;54.25;95806.20;1728785;83;21641;-84
2020/12/07 09:50:52;;;;;;;6.67;2.52;;;;;;;10.74;54.10;95801.15;1728922;82;21135;-84
2020/12/07 09:53:19;;;;;;;3.50;2.42;;;;;;;10.72;54.52;95813.92;1728711;83;21126;-84
2020/12/07 09:55:47;;;;;;;5.65;2.67;;;;;;;10.69;54.60;95804.13;1728942;83;21163;-84
2020/12/07 09:58:15;;;;;;;4.12;2.60;;;;;;;10.69;54.36;95806.78;1728877;83;21158;-84
2020/12/07 10:00:43;;;;;;;3.12;2.15;;;;;;;10.70;54.83;95806.27;1728802;82;21534;-84
2020/12/07 10:03:10;;;;;;;5.20;2.67;;;;;;;10.69;54.54;95806.00;1728864;83;21142;-84
2020/12/07 10:05:37;;;;;;;5.53;2.85;;;;;;;10.80;55.22;95804.70;1728896;83;21234;-84
2020/12/07 10:08:04;;;;;;;3.87;2.40;;;;;;;10.89;54.69;95807.44;1728775;83;21479;-84
2020/12/07 10:10:32;;;;;;;5.08;2.80;;;;;;;11.00;54.17;95804.27;1728724;82;21277;-84
2020/12/07 10:12:59;;;;;;;4.35;2.52;;;;;;;11.12;54.97;95801.08;1728661;83;21154;-84
2020/12/07 10:15:26;;;;;;;3.77;2.60;;;;;;;11.18;54.32;95799.87;1728847;83;21166;-84
2020/12/07 10:17:53;;;;;;;5.00;2.77;;;;;;;11.14;53.78;95804.22;1728739;83;21277;-84
2020/12/07 10:20:20;;;;;;;3.60;2.10;;;;;;;11.02;53.97;95811.13;1731437;81;21695;-84
2020/12/07 10:22:47;;;;;;;4.08;2.90;;;;;;;10.99;54.02;95816.50;1734193;83;21165;-84
2020/12/07 10:25:14;;;;;;;4.25;2.70;;;;;;;10.98;54.29;95821.56;1734197;83;21159;-84
2020/12/07 10:27:41;;;;;;;4.03;2.67;;;;;;;10.89;54.67;95822.80;1734234;83;21538;-84
2020/12/07 10:30:08;;;;;;;4.72;2.40;;;;;;;10.92;55.05;95819.55;1734105;81;21135;-84
2020/12/07 10:32:37;;;;;;;4.00;2.50;;;;;;;11.03;55.26;95813.48;1734262;82;21312;-84
2020/12/07 10:35:04;;;;;;;4.40;2.72;;;;;;;11.10;55.14;95802.44;1734185;83;21499;-84
2020/12/07 10:37:31;;;;;;;4.22;2.72;;;;;;;11.04;54.44;95819.03;1734142;83;21138;-84
2020/12/07 10:39:58;;;;;;;4.75;2.52;;;;;;;10.98;54.89;95819.70;1734175;81;21165;-84
2020/12/07 10:42:25;;;;;;;3.98;2.70;;;;;;;11.00;55.37;95818.85;1734251;82;21199;-84
2020/12/07 10:44:53;;;;;;;3.45;2.55;;;;;;;11.06;55.38;95834.09;1734141;83;21134;-84
2020/12/07 10:47:20;;;;;;;4.25;2.58;;;;;;;11.02;55.02;95826.50;1734237;82;21514;-84
2020/12/07 10:49:49;;;;;;;3.87;2.65;;;;;;;10.93;54.98;95821.66;1734244;81;21111;-84
2020/12/07 10:52:17;;;;;;;5.75;2.87;;;;;;;10.93;55.46;95833.59;1734493;82;21272;-84
2020/12/07 10:54:45;;;;;;;5.35;2.75;;;;;;;10.99;55.63;95832.41;1733755;83;21531;-84
2020/12/07 10:57:13;;;;;;;5.78;2.90;;;;;;;10.96;55.06;95843.59;1734144;83;21140;-84
2020/12/07 10:59:40;;;;;;;5.45;2.95;;;;;;;10.92;55.32;95835.46;1734085;81;21617;-84
2020/12/07 11:02:07;;;;;;;4.03;2.95;;;;;;;10.90;55.47;95833.66;1734179;83;21150;-84
2020/12/07 11:04:34;;;;;;;4.25;2.70;;;;;;;10.88;55.53;95825.77;1734192;83;21641;-84
2020/12/07 11:07:03;;;;;;;4.30;2.80;;;;;;;10.87;55.73;95848.05;1734398;83;21304;-84
2020/12/07 11:09:30;;;;;;;4.22;2.60;;;;;;;10.81;55.28;95840.73;1734194;81;21150;-84
2020/12/07 11:12:00;;;;;;;2.95;2.42;;;;;;;10.78;55.79;95837.90;1734145;83;21111;-84
2020/12/07 11:14:27;;;;;;;3.72;2.20;;;;;;;10.78;55.72;95825.97;1734018;82;21111;-84
2020/12/07 11:16:54;;;;;;;2.95;1.70;;;;;;;10.78;55.57;95822.00;1734121;83;21146;-84
2020/12/07 11:19:21;;;;;;;4.40;2.50;;;;;;;10.71;55.66;95843.62;1734090;81;21142;-84
2020/12/07 11:21:48;;;;;;;4.92;2.40;;;;;;;10.67;56.04;95818.77;1734267;83;21143;-84
2020/12/07 11:24:16;;;;;;;3.80;2.35;;;;;;;10.63;55.95;95821.23;1734078;83;21123;-84
2020/12/07 11:26:43;;;;;;;3.02;2.08;;;;;;;10.57;56.29;95818.46;1734188;83;21685;-84
2020/12/07 11:29:10;;;;;;;3.15;2.42;;;;;;;10.55;56.18;95817.16;1734171;83;21150;-84
2020/12/07 11:31:38;;;;;;;2.72;2.10;;;;;;;10.52;56.44;95814.58;1734135;81;21144;-84
2020/12/07 11:34:05;;;;;;;4.10;2.52;;;;;;;10.49;56.60;95815.17;1734188;82;21512;-84
2020/12/07 11:36:32;;;;;;;4.35;3.02;;;;;;;10.43;56.64;95822.21;1734084;83;21138;-84
2020/12/07 11:39:14;;;;;;;4.20;2.85;;;;;;;10.41;56.86;95822.48;1734052;83;21197;-84
2020/12/07 11:41:43;;;;;;;4.35;2.40;;;;;;;10.43;56.76;95817.70;1730259;83;21302;-83
2020/12/07 11:44:09;;;;;;;5.10;2.85;;;;;;;10.40;57.22;95805.02;1732984;83;21166;-84
2020/12/07 11:46:39;;;;;;;3.87;2.90;;;;;;;10.39;57.38;95812.18;1734396;83;21289;-84
2020/12/07 11:49:07;;;;;;;3.72;2.40;;;;;;;10.40;57.50;95818.27;1734509;83;21288;-83
2020/12/07 11:51:35;;;;;;;3.80;2.52;;;;;;;10.43;57.51;95828.83;1734304;81;21319;-84
2020/12/07 11:54:02;;;;;;;6.28;2.80;;;;;;;10.44;57.37;95816.61;1734278;82;21150;-83
2020/12/07 11:56:39;;;;;;;6.12;3.10;;;;;;;10.48;57.44;95815.47;1734132;83;21146;-84
2020/12/07 11:59:08;;;;;;;3.65;2.33;;;;;;;10.53;57.72;95806.86;1734217;83;21132;-84
2020/12/07 12:01:35;;;;;;;3.90;2.30;;;;;;;10.63;57.61;95796.60;1734217;81;21503;-84
2020/12/07 12:04:06;;;;;;;5.05;2.67;;;;;;;10.69;57.29;95796.17;1734413;82;21276;-84
2020/12/07 12:06:37;;;;;;;3.12;2.15;;;;;;;10.68;57.06;95795.94;1734312;83;21483;-84